sensor_id;sensor_type;location;lat;lon;timestamp;P1;durP1;ratioP1;P2;durP2;ratioP2
47669;SDS011;33408;52.062;11.722;2023-05-10T00:00:47;10.10;;;4.72;;
47669;SDS011;33408;52.062;11.722;2023-05-10T00:03:14;6.60;;;3.97;;
47669;SDS011;33408;52.062;11.722;2023-05-10T00:05:40;7.07;;;4.05;;
47669;SDS011;33408;52.062;11.722;2023-05-10T00:08:07;8.13;;;3.90;;
47669;SDS011;33408;52.062;11.722;2023-05-10T00:10:34;9.50;;;4.10;;
47669;SDS011;33408;52.062;11.722;2023-05-10T00:13:01;10.90;;;4.32;;
47669;SDS011;33408;52.062;11.722;2023-05-10T00:15:29;9.20;;;4.43;;
47669;SDS011;33408;52.062;11.722;2023-05-10T00:17:56;7.88;;;3.90;;
47669;SDS011;33408;52.062;11.722;2023-05-10T00:20:23;7.53;;;4.32;;
47669;SDS011;33408;52.062;11.722;2023-05-10T00:22:49;10.35;;;4.97;;
47669;SDS011;33408;52.062;11.722;2023-05-10T00:25:16;8.07;;;4.57;;
47669;SDS011;33408;52.062;11.722;2023-05-10T00:27:43;7.53;;;4.03;;
47669;SDS011;33408;52.062;11.722;2023-05-10T00:30:09;10.02;;;4.63;;
47669;SDS011;33408;52.062;11.722;2023-05-10T00:32:37;7.07;;;4.28;;
47669;SDS011;33408;52.062;11.722;2023-05-10T00:35:04;7.57;;;4.10;;
47669;SDS011;33408;52.062;11.722;2023-05-10T00:37:31;9.63;;;3.95;;
47669;SDS011;33408;52.062;11.722;2023-05-10T00:39:58;7.38;;;4.32;;
47669;SDS011;33408;52.062;11.722;2023-05-10T00:42:24;7.35;;;4.03;;
47669;SDS011;33408;52.062;11.722;2023-05-10T00:44:51;8.40;;;4.95;;
47669;SDS011;33408;52.062;11.722;2023-05-10T00:47:17;8.75;;;4.68;;
47669;SDS011;33408;52.062;11.722;2023-05-10T00:49:46;7.75;;;4.00;;
47669;SDS011;33408;52.062;11.722;2023-05-10T00:52:12;7.72;;;4.22;;
47669;SDS011;33408;52.062;11.722;2023-05-10T00:54:39;8.93;;;4.18;;
47669;SDS011;33408;52.062;11.722;2023-05-10T00:57:06;8.52;;;4.45;;
47669;SDS011;33408;52.062;11.722;2023-05-10T00:59:33;9.25;;;4.90;;
47669;SDS011;33408;52.062;11.722;2023-05-10T01:02:00;10.20;;;4.55;;
47669;SDS011;33408;52.062;11.722;2023-05-10T01:04:27;8.32;;;4.40;;
47669;SDS011;33408;52.062;11.722;2023-05-10T01:06:55;8.25;;;4.47;;
47669;SDS011;33408;52.062;11.722;2023-05-10T01:09:22;9.40;;;4.63;;
47669;SDS011;33408;52.062;11.722;2023-05-10T01:11:51;8.80;;;4.30;;
47669;SDS011;33408;52.062;11.722;2023-05-10T01:14:18;8.10;;;4.22;;
47669;SDS011;33408;52.062;11.722;2023-05-10T01:16:46;8.50;;;4.85;;
47669;SDS011;33408;52.062;11.722;2023-05-10T01:19:17;8.63;;;4.45;;
47669;SDS011;33408;52.062;11.722;2023-05-10T01:21:48;8.27;;;4.15;;
47669;SDS011;33408;52.062;11.722;2023-05-10T01:24:32;9.02;;;4.32;;
47669;SDS011;33408;52.062;11.722;2023-05-10T01:33:11;7.20;;;4.32;;
47669;SDS011;33408;52.062;11.722;2023-05-10T01:35:45;8.65;;;4.75;;
47669;SDS011;33408;52.062;11.722;2023-05-10T01:38:18;8.07;;;4.78;;
47669;SDS011;33408;52.062;11.722;2023-05-10T01:40:52;8.75;;;4.43;;
47669;SDS011;33408;52.062;11.722;2023-05-10T01:43:28;10.13;;;4.90;;
47669;SDS011;33408;52.062;11.722;2023-05-10T01:45:59;7.80;;;4.28;;
47669;SDS011;33408;52.062;11.722;2023-05-10T01:48:36;8.20;;;4.55;;
47669;SDS011;33408;52.062;11.722;2023-05-10T01:51:08;7.90;;;4.57;;
47669;SDS011;33408;52.062;11.722;2023-05-10T01:53:36;6.82;;;4.35;;
47669;SDS011;33408;52.062;11.722;2023-05-10T01:56:04;9.40;;;5.10;;
47669;SDS011;33408;52.062;11.722;2023-05-10T01:58:33;7.25;;;4.22;;
47669;SDS011;33408;52.062;11.722;2023-05-10T02:01:03;9.23;;;4.60;;
47669;SDS011;33408;52.062;11.722;2023-05-10T02:03:31;10.98;;;4.03;;
47669;SDS011;33408;52.062;11.722;2023-05-10T02:06:03;7.28;;;4.53;;
47669;SDS011;33408;52.062;11.722;2023-05-10T02:08:31;8.32;;;5.00;;
47669;SDS011;33408;52.062;11.722;2023-05-10T02:10:58;6.57;;;4.07;;
47669;SDS011;33408;52.062;11.722;2023-05-10T02:13:26;7.25;;;4.60;;
47669;SDS011;33408;52.062;11.722;2023-05-10T02:15:53;10.98;;;4.38;;
47669;SDS011;33408;52.062;11.722;2023-05-10T02:18:21;9.88;;;4.60;;
47669;SDS011;33408;52.062;11.722;2023-05-10T02:20:50;8.00;;;5.18;;
47669;SDS011;33408;52.062;11.722;2023-05-10T02:23:21;7.80;;;4.45;;
47669;SDS011;33408;52.062;11.722;2023-05-10T02:25:49;8.07;;;4.63;;
47669;SDS011;33408;52.062;11.722;2023-05-10T02:28:20;10.50;;;4.43;;
47669;SDS011;33408;52.062;11.722;2023-05-10T02:30:47;7.55;;;4.60;;
47669;SDS011;33408;52.062;11.722;2023-05-10T02:33:15;9.65;;;5.15;;
47669;SDS011;33408;52.062;11.722;2023-05-10T02:35:42;8.10;;;4.63;;
47669;SDS011;33408;52.062;11.722;2023-05-10T02:38:09;8.18;;;4.20;;
47669;SDS011;33408;52.062;11.722;2023-05-10T02:40:39;8.70;;;5.22;;
47669;SDS011;33408;52.062;11.722;2023-05-10T02:43:08;7.03;;;4.18;;
47669;SDS011;33408;52.062;11.722;2023-05-10T02:45:38;8.45;;;4.60;;
47669;SDS011;33408;52.062;11.722;2023-05-10T02:48:06;9.48;;;4.90;;
47669;SDS011;33408;52.062;11.722;2023-05-10T02:50:33;7.35;;;4.43;;
47669;SDS011;33408;52.062;11.722;2023-05-10T02:53:01;7.13;;;4.53;;
47669;SDS011;33408;52.062;11.722;2023-05-10T02:55:36;8.07;;;4.53;;
47669;SDS011;33408;52.062;11.722;2023-05-10T02:58:07;10.63;;;5.03;;
47669;SDS011;33408;52.062;11.722;2023-05-10T03:00:33;10.73;;;4.82;;
47669;SDS011;33408;52.062;11.722;2023-05-10T03:03:01;9.13;;;4.75;;
47669;SDS011;33408;52.062;11.722;2023-05-10T03:05:27;7.63;;;4.75;;
47669;SDS011;33408;52.062;11.722;2023-05-10T03:07:54;8.07;;;4.82;;
47669;SDS011;33408;52.062;11.722;2023-05-10T03:10:21;8.10;;;4.80;;
47669;SDS011;33408;52.062;11.722;2023-05-10T03:13:01;8.10;;;4.88;;
47669;SDS011;33408;52.062;11.722;2023-05-10T03:15:36;7.60;;;4.63;;
47669;SDS011;33408;52.062;11.722;2023-05-10T03:18:10;8.38;;;4.45;;
47669;SDS011;33408;52.062;11.722;2023-05-10T03:20:41;9.20;;;4.82;;
47669;SDS011;33408;52.062;11.722;2023-05-10T03:23:11;9.73;;;4.80;;
47669;SDS011;33408;52.062;11.722;2023-05-10T03:25:43;7.25;;;4.78;;
47669;SDS011;33408;52.062;11.722;2023-05-10T03:28:12;10.52;;;5.30;;
47669;SDS011;33408;52.062;11.722;2023-05-10T03:30:41;13.18;;;4.82;;
47669;SDS011;33408;52.062;11.722;2023-05-10T03:33:09;8.02;;;4.75;;
47669;SDS011;33408;52.062;11.722;2023-05-10T03:35:37;6.72;;;3.97;;
47669;SDS011;33408;52.062;11.722;2023-05-10T03:38:04;7.32;;;4.57;;
47669;SDS011;33408;52.062;11.722;2023-05-10T03:40:31;8.50;;;4.82;;
47669;SDS011;33408;52.062;11.722;2023-05-10T03:42:57;7.90;;;4.90;;
47669;SDS011;33408;52.062;11.722;2023-05-10T03:45:25;9.15;;;4.57;;
47669;SDS011;33408;52.062;11.722;2023-05-10T03:47:52;10.38;;;4.90;;
47669;SDS011;33408;52.062;11.722;2023-05-10T03:50:19;7.70;;;4.22;;
47669;SDS011;33408;52.062;11.722;2023-05-10T03:52:46;8.63;;;4.70;;
47669;SDS011;33408;52.062;11.722;2023-05-10T03:55:13;12.30;;;4.60;;
47669;SDS011;33408;52.062;11.722;2023-05-10T03:57:39;7.45;;;4.22;;
47669;SDS011;33408;52.062;11.722;2023-05-10T04:00:06;8.52;;;4.60;;
47669;SDS011;33408;52.062;11.722;2023-05-10T04:02:36;8.43;;;4.50;;
47669;SDS011;33408;52.062;11.722;2023-05-10T04:05:02;7.38;;;4.00;;
47669;SDS011;33408;52.062;11.722;2023-05-10T04:07:29;8.57;;;4.45;;
47669;SDS011;33408;52.062;11.722;2023-05-10T04:09:55;8.52;;;4.22;;
47669;SDS011;33408;52.062;11.722;2023-05-10T04:12:22;7.97;;;4.13;;
47669;SDS011;33408;52.062;11.722;2023-05-10T04:14:49;8.27;;;4.47;;
47669;SDS011;33408;52.062;11.722;2023-05-10T04:17:16;8.18;;;4.10;;
47669;SDS011;33408;52.062;11.722;2023-05-10T04:19:44;8.40;;;4.30;;
47669;SDS011;33408;52.062;11.722;2023-05-10T04:22:10;6.47;;;3.85;;
47669;SDS011;33408;52.062;11.722;2023-05-10T04:24:37;6.65;;;4.10;;
47669;SDS011;33408;52.062;11.722;2023-05-10T04:27:03;7.82;;;4.10;;
47669;SDS011;33408;52.062;11.722;2023-05-10T04:29:30;6.43;;;4.15;;
47669;SDS011;33408;52.062;11.722;2023-05-10T04:31:56;8.40;;;4.20;;
47669;SDS011;33408;52.062;11.722;2023-05-10T04:34:23;8.00;;;3.90;;
47669;SDS011;33408;52.062;11.722;2023-05-10T04:36:51;7.50;;;4.10;;
47669;SDS011;33408;52.062;11.722;2023-05-10T04:39:18;7.90;;;4.20;;
47669;SDS011;33408;52.062;11.722;2023-05-10T04:41:45;7.28;;;3.88;;
47669;SDS011;33408;52.062;11.722;2023-05-10T04:44:11;8.50;;;3.83;;
47669;SDS011;33408;52.062;11.722;2023-05-10T04:46:38;10.00;;;3.60;;
47669;SDS011;33408;52.062;11.722;2023-05-10T04:49:04;7.50;;;3.58;;
47669;SDS011;33408;52.062;11.722;2023-05-10T04:51:31;7.75;;;3.63;;
47669;SDS011;33408;52.062;11.722;2023-05-10T04:53:59;7.07;;;3.70;;
47669;SDS011;33408;52.062;11.722;2023-05-10T04:56:26;7.97;;;3.88;;
47669;SDS011;33408;52.062;11.722;2023-05-10T04:58:52;5.82;;;3.40;;
47669;SDS011;33408;52.062;11.722;2023-05-10T05:01:19;9.32;;;3.80;;
47669;SDS011;33408;52.062;11.722;2023-05-10T05:03:46;6.78;;;3.60;;
47669;SDS011;33408;52.062;11.722;2023-05-10T05:06:12;6.63;;;3.42;;
47669;SDS011;33408;52.062;11.722;2023-05-10T05:08:39;6.63;;;3.38;;
47669;SDS011;33408;52.062;11.722;2023-05-10T05:11:07;6.22;;;3.47;;
47669;SDS011;33408;52.062;11.722;2023-05-10T05:13:33;5.97;;;3.30;;
47669;SDS011;33408;52.062;11.722;2023-05-10T05:16:00;8.98;;;4.03;;
47669;SDS011;33408;52.062;11.722;2023-05-10T05:18:27;5.85;;;3.35;;
47669;SDS011;33408;52.062;11.722;2023-05-10T05:20:54;6.93;;;3.70;;
47669;SDS011;33408;52.062;11.722;2023-05-10T05:23:21;7.15;;;3.78;;
47669;SDS011;33408;52.062;11.722;2023-05-10T05:25:49;8.80;;;3.38;;
47669;SDS011;33408;52.062;11.722;2023-05-10T05:28:18;6.70;;;3.45;;
47669;SDS011;33408;52.062;11.722;2023-05-10T05:30:45;7.57;;;3.50;;
47669;SDS011;33408;52.062;11.722;2023-05-10T05:33:12;6.68;;;3.58;;
47669;SDS011;33408;52.062;11.722;2023-05-10T05:35:40;6.50;;;3.70;;
47669;SDS011;33408;52.062;11.722;2023-05-10T05:38:07;8.00;;;4.10;;
47669;SDS011;33408;52.062;11.722;2023-05-10T05:40:34;6.70;;;3.50;;
47669;SDS011;33408;52.062;11.722;2023-05-10T05:43:01;7.45;;;3.35;;
47669;SDS011;33408;52.062;11.722;2023-05-10T05:45:29;6.32;;;3.45;;
47669;SDS011;33408;52.062;11.722;2023-05-10T05:47:55;5.47;;;3.25;;
47669;SDS011;33408;52.062;11.722;2023-05-10T05:50:22;6.35;;;3.70;;
47669;SDS011;33408;52.062;11.722;2023-05-10T05:52:48;5.80;;;3.45;;
47669;SDS011;33408;52.062;11.722;2023-05-10T05:55:15;8.07;;;3.63;;
47669;SDS011;33408;52.062;11.722;2023-05-10T05:57:41;7.93;;;3.85;;
47669;SDS011;33408;52.062;11.722;2023-05-10T06:00:08;12.93;;;3.95;;
47669;SDS011;33408;52.062;11.722;2023-05-10T06:02:36;6.20;;;3.38;;
47669;SDS011;33408;52.062;11.722;2023-05-10T06:05:03;5.85;;;3.33;;
47669;SDS011;33408;52.062;11.722;2023-05-10T06:07:31;7.30;;;3.40;;
47669;SDS011;33408;52.062;11.722;2023-05-10T06:09:57;5.15;;;3.00;;
47669;SDS011;33408;52.062;11.722;2023-05-10T06:12:24;7.78;;;3.40;;
47669;SDS011;33408;52.062;11.722;2023-05-10T06:14:50;7.50;;;3.80;;
47669;SDS011;33408;52.062;11.722;2023-05-10T06:17:17;5.82;;;3.53;;
47669;SDS011;33408;52.062;11.722;2023-05-10T06:19:45;6.85;;;3.60;;
47669;SDS011;33408;52.062;11.722;2023-05-10T06:22:12;6.90;;;3.40;;
47669;SDS011;33408;52.062;11.722;2023-05-10T06:24:38;6.10;;;3.30;;
47669;SDS011;33408;52.062;11.722;2023-05-10T06:27:05;8.02;;;3.85;;
47669;SDS011;33408;52.062;11.722;2023-05-10T06:29:32;6.20;;;3.53;;
47669;SDS011;33408;52.062;11.722;2023-05-10T06:31:59;8.30;;;3.95;;
47669;SDS011;33408;52.062;11.722;2023-05-10T06:34:25;8.95;;;3.45;;
47669;SDS011;33408;52.062;11.722;2023-05-10T06:36:53;7.03;;;4.10;;
47669;SDS011;33408;52.062;11.722;2023-05-10T06:39:20;7.65;;;3.33;;
47669;SDS011;33408;52.062;11.722;2023-05-10T06:41:46;8.77;;;3.78;;
47669;SDS011;33408;52.062;11.722;2023-05-10T06:44:13;6.55;;;3.63;;
47669;SDS011;33408;52.062;11.722;2023-05-10T06:46:39;7.65;;;3.83;;
47669;SDS011;33408;52.062;11.722;2023-05-10T06:49:06;8.80;;;3.88;;
47669;SDS011;33408;52.062;11.722;2023-05-10T06:51:33;6.93;;;3.35;;
47669;SDS011;33408;52.062;11.722;2023-05-10T06:54:01;7.18;;;3.75;;
47669;SDS011;33408;52.062;11.722;2023-05-10T06:56:28;7.25;;;3.55;;
47669;SDS011;33408;52.062;11.722;2023-05-10T06:58:54;5.75;;;3.25;;
47669;SDS011;33408;52.062;11.722;2023-05-10T07:01:21;6.68;;;3.60;;
47669;SDS011;33408;52.062;11.722;2023-05-10T07:03:48;8.05;;;3.47;;
47669;SDS011;33408;52.062;11.722;2023-05-10T07:06:15;6.70;;;3.63;;
47669;SDS011;33408;52.062;11.722;2023-05-10T07:08:42;7.20;;;3.70;;
47669;SDS011;33408;52.062;11.722;2023-05-10T07:11:10;6.55;;;3.60;;
47669;SDS011;33408;52.062;11.722;2023-05-10T07:13:37;7.30;;;3.60;;
47669;SDS011;33408;52.062;11.722;2023-05-10T07:16:06;11.23;;;3.47;;
47669;SDS011;33408;52.062;11.722;2023-05-10T07:18:33;8.85;;;3.97;;
47669;SDS011;33408;52.062;11.722;2023-05-10T07:20:59;7.53;;;3.05;;
47669;SDS011;33408;52.062;11.722;2023-05-10T07:23:26;7.78;;;3.58;;
47669;SDS011;33408;52.062;11.722;2023-05-10T07:25:53;6.78;;;3.30;;
47669;SDS011;33408;52.062;11.722;2023-05-10T07:28:21;7.03;;;3.92;;
47669;SDS011;33408;52.062;11.722;2023-05-10T07:30:48;7.18;;;4.18;;
47669;SDS011;33408;52.062;11.722;2023-05-10T07:33:14;6.90;;;3.40;;
47669;SDS011;33408;52.062;11.722;2023-05-10T07:35:41;12.50;;;3.85;;
47669;SDS011;33408;52.062;11.722;2023-05-10T07:38:08;7.28;;;3.83;;
47669;SDS011;33408;52.062;11.722;2023-05-10T07:40:36;7.85;;;3.50;;
47669;SDS011;33408;52.062;11.722;2023-05-10T07:43:03;9.02;;;4.15;;
47669;SDS011;33408;52.062;11.722;2023-05-10T07:45:30;8.40;;;3.78;;
47669;SDS011;33408;52.062;11.722;2023-05-10T07:47:57;7.78;;;3.40;;
47669;SDS011;33408;52.062;11.722;2023-05-10T07:50:24;7.78;;;3.75;;
47669;SDS011;33408;52.062;11.722;2023-05-10T07:52:51;6.75;;;3.58;;
47669;SDS011;33408;52.062;11.722;2023-05-10T07:55:18;6.85;;;4.07;;
47669;SDS011;33408;52.062;11.722;2023-05-10T07:57:46;7.05;;;3.97;;
47669;SDS011;33408;52.062;11.722;2023-05-10T08:00:13;6.72;;;4.07;;
47669;SDS011;33408;52.062;11.722;2023-05-10T08:02:45;10.68;;;4.38;;
47669;SDS011;33408;52.062;11.722;2023-05-10T08:05:12;7.93;;;3.75;;
47669;SDS011;33408;52.062;11.722;2023-05-10T08:07:39;9.48;;;4.40;;
47669;SDS011;33408;52.062;11.722;2023-05-10T08:10:06;9.10;;;3.80;;
47669;SDS011;33408;52.062;11.722;2023-05-10T08:12:34;8.43;;;4.00;;
47669;SDS011;33408;52.062;11.722;2023-05-10T08:15:01;10.77;;;4.43;;
47669;SDS011;33408;52.062;11.722;2023-05-10T08:17:28;10.88;;;4.18;;
47669;SDS011;33408;52.062;11.722;2023-05-10T08:19:56;9.18;;;4.20;;
47669;SDS011;33408;52.062;11.722;2023-05-10T08:22:23;11.02;;;4.10;;
47669;SDS011;33408;52.062;11.722;2023-05-10T08:24:49;8.77;;;4.13;;
47669;SDS011;33408;52.062;11.722;2023-05-10T08:27:16;9.50;;;4.35;;
47669;SDS011;33408;52.062;11.722;2023-05-10T08:29:42;8.02;;;3.90;;
47669;SDS011;33408;52.062;11.722;2023-05-10T08:32:09;8.52;;;4.78;;
47669;SDS011;33408;52.062;11.722;2023-05-10T08:34:35;8.18;;;4.53;;
47669;SDS011;33408;52.062;11.722;2023-05-10T08:37:03;8.70;;;4.65;;
47669;SDS011;33408;52.062;11.722;2023-05-10T08:39:33;7.60;;;4.47;;
47669;SDS011;33408;52.062;11.722;2023-05-10T08:42:01;13.27;;;5.30;;
47669;SDS011;33408;52.062;11.722;2023-05-10T08:44:30;12.23;;;4.90;;
47669;SDS011;33408;52.062;11.722;2023-05-10T08:46:57;10.43;;;4.68;;
47669;SDS011;33408;52.062;11.722;2023-05-10T08:49:28;8.07;;;4.63;;
47669;SDS011;33408;52.062;11.722;2023-05-10T08:51:57;10.82;;;4.90;;
47669;SDS011;33408;52.062;11.722;2023-05-10T08:54:29;12.07;;;5.53;;
47669;SDS011;33408;52.062;11.722;2023-05-10T08:56:57;8.18;;;4.20;;
47669;SDS011;33408;52.062;11.722;2023-05-10T08:59:23;8.80;;;5.03;;
47669;SDS011;33408;52.062;11.722;2023-05-10T09:01:50;7.90;;;4.40;;
47669;SDS011;33408;52.062;11.722;2023-05-10T09:04:18;7.63;;;4.43;;
47669;SDS011;33408;52.062;11.722;2023-05-10T09:06:45;11.27;;;5.20;;
47669;SDS011;33408;52.062;11.722;2023-05-10T09:09:12;14.45;;;5.25;;
47669;SDS011;33408;52.062;11.722;2023-05-10T09:11:41;11.27;;;5.53;;
47669;SDS011;33408;52.062;11.722;2023-05-10T09:14:07;11.55;;;5.07;;
47669;SDS011;33408;52.062;11.722;2023-05-10T09:16:34;9.40;;;5.03;;
47669;SDS011;33408;52.062;11.722;2023-05-10T09:19:01;9.00;;;5.05;;
47669;SDS011;33408;52.062;11.722;2023-05-10T09:21:27;9.23;;;5.40;;
47669;SDS011;33408;52.062;11.722;2023-05-10T09:23:55;9.32;;;5.50;;
47669;SDS011;33408;52.062;11.722;2023-05-10T09:26:22;9.77;;;5.35;;
47669;SDS011;33408;52.062;11.722;2023-05-10T09:28:53;9.57;;;5.40;;
47669;SDS011;33408;52.062;11.722;2023-05-10T09:31:21;8.85;;;5.15;;
47669;SDS011;33408;52.062;11.722;2023-05-10T09:33:49;9.60;;;5.32;;
47669;SDS011;33408;52.062;11.722;2023-05-10T09:36:16;16.15;;;4.88;;
47669;SDS011;33408;52.062;11.722;2023-05-10T09:38:46;10.82;;;5.50;;
47669;SDS011;33408;52.062;11.722;2023-05-10T09:41:17;7.50;;;5.25;;
47669;SDS011;33408;52.062;11.722;2023-05-10T09:43:45;9.70;;;4.70;;
47669;SDS011;33408;52.062;11.722;2023-05-10T09:46:13;9.15;;;5.07;;
47669;SDS011;33408;52.062;11.722;2023-05-10T09:48:41;8.63;;;4.95;;
47669;SDS011;33408;52.062;11.722;2023-05-10T09:51:09;10.35;;;5.20;;
47669;SDS011;33408;52.062;11.722;2023-05-10T09:53:36;7.63;;;5.18;;
47669;SDS011;33408;52.062;11.722;2023-05-10T09:56:02;12.48;;;6.13;;
47669;SDS011;33408;52.062;11.722;2023-05-10T09:58:29;10.30;;;5.97;;
47669;SDS011;33408;52.062;11.722;2023-05-10T10:00:56;10.93;;;5.43;;
47669;SDS011;33408;52.062;11.722;2023-05-10T10:03:24;11.88;;;5.82;;
47669;SDS011;33408;52.062;11.722;2023-05-10T10:05:51;11.85;;;6.53;;
47669;SDS011;33408;52.062;11.722;2023-05-10T10:08:18;11.30;;;6.28;;
47669;SDS011;33408;52.062;11.722;2023-05-10T10:10:45;10.43;;;6.53;;
47669;SDS011;33408;52.062;11.722;2023-05-10T10:13:13;9.30;;;5.85;;
47669;SDS011;33408;52.062;11.722;2023-05-10T10:15:40;11.68;;;6.60;;
47669;SDS011;33408;52.062;11.722;2023-05-10T10:18:08;12.20;;;7.18;;
47669;SDS011;33408;52.062;11.722;2023-05-10T10:20:40;11.50;;;7.57;;
47669;SDS011;33408;52.062;11.722;2023-05-10T10:23:07;12.48;;;7.35;;
47669;SDS011;33408;52.062;11.722;2023-05-10T10:25:34;10.30;;;6.72;;
47669;SDS011;33408;52.062;11.722;2023-05-10T10:28:08;9.32;;;6.68;;
47669;SDS011;33408;52.062;11.722;2023-05-10T10:30:43;13.43;;;7.65;;
47669;SDS011;33408;52.062;11.722;2023-05-10T10:36:07;11.48;;;6.70;;
47669;SDS011;33408;52.062;11.722;2023-05-10T10:38:38;10.80;;;6.20;;
47669;SDS011;33408;52.062;11.722;2023-05-10T10:41:28;9.77;;;6.70;;
47669;SDS011;33408;52.062;11.722;2023-05-10T10:47:00;10.68;;;7.65;;
47669;SDS011;33408;52.062;11.722;2023-05-10T10:49:30;10.10;;;6.55;;
47669;SDS011;33408;52.062;11.722;2023-05-10T10:54:58;13.07;;;7.95;;
47669;SDS011;33408;52.062;11.722;2023-05-10T10:57:27;10.70;;;6.68;;
47669;SDS011;33408;52.062;11.722;2023-05-10T11:02:50;12.88;;;7.72;;
47669;SDS011;33408;52.062;11.722;2023-05-10T11:08:11;10.40;;;7.55;;
47669;SDS011;33408;52.062;11.722;2023-05-10T11:10:48;12.40;;;7.27;;
47669;SDS011;33408;52.062;11.722;2023-05-10T11:13:17;11.88;;;8.40;;
47669;SDS011;33408;52.062;11.722;2023-05-10T11:15:53;13.60;;;8.18;;
47669;SDS011;33408;52.062;11.722;2023-05-10T11:18:23;12.60;;;8.57;;
47669;SDS011;33408;52.062;11.722;2023-05-10T11:20:51;10.38;;;8.30;;
47669;SDS011;33408;52.062;11.722;2023-05-10T11:23:19;13.43;;;9.18;;
47669;SDS011;33408;52.062;11.722;2023-05-10T11:25:47;16.13;;;8.63;;
47669;SDS011;33408;52.062;11.722;2023-05-10T11:28:16;11.68;;;9.13;;
47669;SDS011;33408;52.062;11.722;2023-05-10T11:30:44;12.05;;;9.20;;
47669;SDS011;33408;52.062;11.722;2023-05-10T11:33:14;12.77;;;8.95;;
47669;SDS011;33408;52.062;11.722;2023-05-10T11:35:42;16.02;;;10.38;;
47669;SDS011;33408;52.062;11.722;2023-05-10T11:38:09;16.23;;;9.60;;
47669;SDS011;33408;52.062;11.722;2023-05-10T11:40:38;13.30;;;9.75;;
47669;SDS011;33408;52.062;11.722;2023-05-10T11:43:05;14.23;;;10.82;;
47669;SDS011;33408;52.062;11.722;2023-05-10T11:45:32;20.02;;;11.35;;
47669;SDS011;33408;52.062;11.722;2023-05-10T11:47:59;13.73;;;10.52;;
47669;SDS011;33408;52.062;11.722;2023-05-10T11:50:27;15.07;;;11.38;;
47669;SDS011;33408;52.062;11.722;2023-05-10T11:52:54;12.27;;;9.57;;
47669;SDS011;33408;52.062;11.722;2023-05-10T11:55:22;11.88;;;9.82;;
47669;SDS011;33408;52.062;11.722;2023-05-10T11:57:52;11.73;;;9.77;;
47669;SDS011;33408;52.062;11.722;2023-05-10T12:00:19;13.07;;;10.05;;
47669;SDS011;33408;52.062;11.722;2023-05-10T12:02:46;13.70;;;10.70;;
47669;SDS011;33408;52.062;11.722;2023-05-10T12:05:14;12.43;;;9.85;;
47669;SDS011;33408;52.062;11.722;2023-05-10T12:07:41;14.52;;;10.50;;
47669;SDS011;33408;52.062;11.722;2023-05-10T12:10:08;14.25;;;9.98;;
47669;SDS011;33408;52.062;11.722;2023-05-10T12:12:37;13.93;;;9.80;;
47669;SDS011;33408;52.062;11.722;2023-05-10T12:15:06;13.55;;;9.65;;
47669;SDS011;33408;52.062;11.722;2023-05-10T12:17:37;13.30;;;10.57;;
47669;SDS011;33408;52.062;11.722;2023-05-10T12:20:14;13.27;;;10.68;;
47669;SDS011;33408;52.062;11.722;2023-05-10T12:22:43;13.02;;;10.32;;
47669;SDS011;33408;52.062;11.722;2023-05-10T12:25:10;13.30;;;11.00;;
47669;SDS011;33408;52.062;11.722;2023-05-10T12:27:37;12.85;;;10.57;;
47669;SDS011;33408;52.062;11.722;2023-05-10T12:30:06;12.68;;;10.82;;
47669;SDS011;33408;52.062;11.722;2023-05-10T12:32:40;13.75;;;10.32;;
47669;SDS011;33408;52.062;11.722;2023-05-10T12:35:07;12.35;;;10.68;;
47669;SDS011;33408;52.062;11.722;2023-05-10T12:37:34;15.85;;;11.20;;
47669;SDS011;33408;52.062;11.722;2023-05-10T12:40:05;13.57;;;10.63;;
47669;SDS011;33408;52.062;11.722;2023-05-10T12:42:34;14.85;;;11.43;;
47669;SDS011;33408;52.062;11.722;2023-05-10T12:45:01;13.23;;;10.88;;
47669;SDS011;33408;52.062;11.722;2023-05-10T12:47:30;16.25;;;10.70;;
47669;SDS011;33408;52.062;11.722;2023-05-10T12:49:56;15.38;;;10.95;;
47669;SDS011;33408;52.062;11.722;2023-05-10T12:52:23;13.95;;;11.52;;
47669;SDS011;33408;52.062;11.722;2023-05-10T12:54:52;12.88;;;11.00;;
47669;SDS011;33408;52.062;11.722;2023-05-10T12:57:21;12.60;;;10.20;;
47669;SDS011;33408;52.062;11.722;2023-05-10T12:59:48;12.82;;;10.90;;
47669;SDS011;33408;52.062;11.722;2023-05-10T13:02:15;12.73;;;11.25;;
47669;SDS011;33408;52.062;11.722;2023-05-10T13:04:44;13.15;;;10.80;;
47669;SDS011;33408;52.062;11.722;2023-05-10T13:07:11;11.30;;;9.90;;
47669;SDS011;33408;52.062;11.722;2023-05-10T13:09:38;18.30;;;11.48;;
47669;SDS011;33408;52.062;11.722;2023-05-10T13:12:05;13.90;;;10.65;;
47669;SDS011;33408;52.062;11.722;2023-05-10T13:14:31;14.25;;;10.27;;
47669;SDS011;33408;52.062;11.722;2023-05-10T13:16:58;12.40;;;9.98;;
47669;SDS011;33408;52.062;11.722;2023-05-10T13:19:25;13.65;;;10.20;;
47669;SDS011;33408;52.062;11.722;2023-05-10T13:21:53;15.00;;;9.77;;
47669;SDS011;33408;52.062;11.722;2023-05-10T13:24:20;12.68;;;9.82;;
47669;SDS011;33408;52.062;11.722;2023-05-10T13:26:47;12.73;;;9.93;;
47669;SDS011;33408;52.062;11.722;2023-05-10T13:29:14;11.25;;;9.30;;
47669;SDS011;33408;52.062;11.722;2023-05-10T13:31:42;12.70;;;10.00;;
47669;SDS011;33408;52.062;11.722;2023-05-10T13:34:09;10.70;;;9.52;;
47669;SDS011;33408;52.062;11.722;2023-05-10T13:36:36;11.05;;;9.05;;
47669;SDS011;33408;52.062;11.722;2023-05-10T13:39:04;10.52;;;7.85;;
47669;SDS011;33408;52.062;11.722;2023-05-10T13:41:31;9.30;;;6.82;;
47669;SDS011;33408;52.062;11.722;2023-05-10T13:43:58;8.82;;;6.45;;
47669;SDS011;33408;52.062;11.722;2023-05-10T13:46:24;7.85;;;5.35;;
47669;SDS011;33408;52.062;11.722;2023-05-10T13:48:51;6.50;;;4.40;;
47669;SDS011;33408;52.062;11.722;2023-05-10T13:51:17;6.05;;;3.88;;
47669;SDS011;33408;52.062;11.722;2023-05-10T13:53:46;5.40;;;2.92;;
47669;SDS011;33408;52.062;11.722;2023-05-10T13:56:14;4.90;;;2.08;;
47669;SDS011;33408;52.062;11.722;2023-05-10T13:58:41;4.22;;;2.30;;
47669;SDS011;33408;52.062;11.722;2023-05-10T14:01:07;4.78;;;2.55;;
47669;SDS011;33408;52.062;11.722;2023-05-10T14:03:34;5.35;;;3.00;;
47669;SDS011;33408;52.062;11.722;2023-05-10T14:06:01;6.30;;;3.90;;
47669;SDS011;33408;52.062;11.722;2023-05-10T14:08:27;5.82;;;3.85;;
47669;SDS011;33408;52.062;11.722;2023-05-10T14:10:54;6.60;;;4.07;;
47669;SDS011;33408;52.062;11.722;2023-05-10T14:13:23;6.72;;;4.32;;
47669;SDS011;33408;52.062;11.722;2023-05-10T14:15:50;7.85;;;4.85;;
47669;SDS011;33408;52.062;11.722;2023-05-10T14:18:18;6.15;;;3.97;;
47669;SDS011;33408;52.062;11.722;2023-05-10T14:20:45;7.75;;;4.22;;
47669;SDS011;33408;52.062;11.722;2023-05-10T14:23:12;5.90;;;3.80;;
47669;SDS011;33408;52.062;11.722;2023-05-10T14:25:39;5.95;;;3.10;;
47669;SDS011;33408;52.062;11.722;2023-05-10T14:28:06;4.63;;;2.88;;
47669;SDS011;33408;52.062;11.722;2023-05-10T14:30:34;5.40;;;3.30;;
47669;SDS011;33408;52.062;11.722;2023-05-10T14:33:01;4.72;;;2.92;;
47669;SDS011;33408;52.062;11.722;2023-05-10T14:35:28;5.28;;;2.95;;
47669;SDS011;33408;52.062;11.722;2023-05-10T14:37:56;5.13;;;2.90;;
47669;SDS011;33408;52.062;11.722;2023-05-10T14:40:22;5.40;;;3.15;;
47669;SDS011;33408;52.062;11.722;2023-05-10T14:42:49;5.15;;;3.08;;
47669;SDS011;33408;52.062;11.722;2023-05-10T14:45:17;5.55;;;3.22;;
47669;SDS011;33408;52.062;11.722;2023-05-10T14:47:45;6.15;;;2.90;;
47669;SDS011;33408;52.062;11.722;2023-05-10T14:50:12;6.22;;;3.35;;
47669;SDS011;33408;52.062;11.722;2023-05-10T14:52:39;7.13;;;3.22;;